createdAt,value
2022-10-16T00:01:44.711Z,15.08
2022-10-16T00:04:13.443Z,15.08
2022-10-16T00:06:41.413Z,15.05
2022-10-16T00:09:09.375Z,15.05
2022-10-16T00:11:40.205Z,15.04
2022-10-16T00:14:12.147Z,15.03
2022-10-16T00:16:40.920Z,15.06
2022-10-16T00:19:10.049Z,15.10
2022-10-16T00:21:37.932Z,15.12
2022-10-16T00:24:12.000Z,15.13
2022-10-16T00:26:41.116Z,15.13
2022-10-16T00:29:09.593Z,15.13
2022-10-16T00:31:37.407Z,15.15
2022-10-16T00:34:05.275Z,15.16
2022-10-16T00:36:33.232Z,15.17
2022-10-16T00:41:34.958Z,15.16
2022-10-16T00:44:41.466Z,15.20
2022-10-16T00:47:18.723Z,15.27
2022-10-16T00:49:48.745Z,15.29
2022-10-16T00:52:17.545Z,15.32
2022-10-16T00:54:47.329Z,15.36
2022-10-16T00:59:48.303Z,15.46
2022-10-16T01:02:18.093Z,15.46
2022-10-16T01:04:53.715Z,15.43
2022-10-16T01:07:58.882Z,15.41
2022-10-16T01:10:42.121Z,15.40
2022-10-16T01:13:22.192Z,15.37
2022-10-16T01:16:07.137Z,15.35
2022-10-16T01:18:47.644Z,15.37
2022-10-16T01:21:39.141Z,15.40
2022-10-16T01:24:19.551Z,15.39
2022-10-16T01:27:08.765Z,15.35
2022-10-16T01:29:49.728Z,15.35
2022-10-16T01:32:32.489Z,15.36
2022-10-16T01:35:06.020Z,15.33
2022-10-16T01:37:33.786Z,15.29
2022-10-16T01:40:06.290Z,15.25
2022-10-16T01:42:41.182Z,15.24
2022-10-16T01:45:12.385Z,15.25
2022-10-16T01:47:41.861Z,15.23
2022-10-16T01:50:10.174Z,15.22
2022-10-16T01:52:41.333Z,15.22
2022-10-16T01:55:11.471Z,15.23
2022-10-16T01:57:44.336Z,15.23
2022-10-16T02:00:14.963Z,15.21
2022-10-16T02:02:48.440Z,15.21
2022-10-16T02:05:29.422Z,15.23
2022-10-16T02:07:58.542Z,15.22
2022-10-16T02:10:32.449Z,15.18
2022-10-16T02:13:07.239Z,15.14
2022-10-16T02:15:35.069Z,15.13
2022-10-16T02:18:06.112Z,15.13
2022-10-16T02:20:41.063Z,15.12
2022-10-16T02:23:18.307Z,15.12
2022-10-16T02:25:48.208Z,15.12
2022-10-16T02:28:25.199Z,15.13
2022-10-16T02:31:04.551Z,15.14
2022-10-16T02:33:34.771Z,15.13
2022-10-16T02:36:02.927Z,15.10
2022-10-16T02:38:31.968Z,15.08
2022-10-16T02:41:00.061Z,15.08
2022-10-16T02:43:27.945Z,15.11
2022-10-16T02:45:55.923Z,15.09
2022-10-16T02:48:23.893Z,15.06
2022-10-16T02:50:52.140Z,15.02
2022-10-16T02:53:20.075Z,15.00
2022-10-16T02:55:47.835Z,14.98
2022-10-16T02:58:15.939Z,14.95
2022-10-16T03:00:43.966Z,14.93
2022-10-16T03:03:11.880Z,14.92
2022-10-16T03:05:39.935Z,14.91
2022-10-16T03:08:07.918Z,14.89
2022-10-16T03:10:35.711Z,14.87
2022-10-16T03:13:03.765Z,14.83
2022-10-16T03:15:31.810Z,14.79
2022-10-16T03:18:00.518Z,14.78
2022-10-16T03:20:28.321Z,14.77
2022-10-16T03:22:56.245Z,14.76
2022-10-16T03:25:24.047Z,14.76
2022-10-16T03:27:51.913Z,14.75
2022-10-16T03:30:19.870Z,14.72
2022-10-16T03:32:47.761Z,14.72
2022-10-16T03:35:15.725Z,14.71
2022-10-16T03:37:43.570Z,14.70
2022-10-16T03:40:11.762Z,14.67
2022-10-16T03:42:39.560Z,14.63
2022-10-16T03:45:07.858Z,14.60
2022-10-16T03:47:35.757Z,14.56
2022-10-16T03:50:04.884Z,14.54
2022-10-16T03:52:33.266Z,14.54
2022-10-16T03:55:01.060Z,14.54
2022-10-16T03:57:29.285Z,14.53
2022-10-16T03:59:57.583Z,14.53
2022-10-16T04:02:25.810Z,14.53
2022-10-16T04:04:53.753Z,14.52
2022-10-16T04:07:21.769Z,14.49
2022-10-16T04:09:49.724Z,14.47
2022-10-16T04:12:17.478Z,14.49
2022-10-16T04:14:45.440Z,14.54
2022-10-16T04:17:13.226Z,14.57
2022-10-16T04:19:41.034Z,14.59
2022-10-16T04:22:09.171Z,14.63
2022-10-16T04:24:37.053Z,14.67
2022-10-16T04:27:04.859Z,14.68
2022-10-16T04:29:32.770Z,14.68
2022-10-16T04:32:00.603Z,14.67
2022-10-16T04:34:28.398Z,14.66
2022-10-16T04:36:56.266Z,14.67
2022-10-16T04:39:24.071Z,14.64
2022-10-16T04:41:51.993Z,14.60
2022-10-16T04:44:19.876Z,14.56
2022-10-16T04:46:47.730Z,14.55
2022-10-16T04:49:15.567Z,14.57
2022-10-16T04:51:43.448Z,14.61
2022-10-16T04:54:11.482Z,14.63
2022-10-16T04:56:47.181Z,14.62
2022-10-16T04:59:16.074Z,14.62
2022-10-16T05:01:44.126Z,14.60
2022-10-16T05:04:12.273Z,14.63
2022-10-16T05:06:40.079Z,14.68
2022-10-16T05:09:08.390Z,14.71
2022-10-16T05:11:36.641Z,14.74
2022-10-16T05:14:04.787Z,14.77
2022-10-16T05:16:32.808Z,14.82
2022-10-16T05:19:26.662Z,14.84
2022-10-16T05:21:48.609Z,14.84
2022-10-16T05:24:17.167Z,14.83
2022-10-16T05:26:45.037Z,14.81
2022-10-16T05:29:13.095Z,14.79
2022-10-16T05:31:41.070Z,14.76
2022-10-16T05:34:08.899Z,14.74
2022-10-16T05:36:36.814Z,14.71
2022-10-16T05:39:04.754Z,14.69
2022-10-16T05:41:32.805Z,14.69
2022-10-16T05:44:00.690Z,14.72
2022-10-16T05:46:28.522Z,14.79
2022-10-16T05:48:56.382Z,14.87
2022-10-16T05:51:24.273Z,14.97
2022-10-16T05:53:53.234Z,15.03
2022-10-16T05:56:21.039Z,15.08
2022-10-16T05:58:48.845Z,15.12
2022-10-16T06:01:19.049Z,15.21
2022-10-16T06:03:47.016Z,15.28
2022-10-16T06:06:17.697Z,15.35
2022-10-16T06:08:47.148Z,15.41
2022-10-16T06:11:20.592Z,15.48
2022-10-16T06:13:52.715Z,15.59
2022-10-16T06:16:21.446Z,15.69
2022-10-16T06:18:49.261Z,15.77
2022-10-16T06:21:23.006Z,15.83
2022-10-16T06:23:50.787Z,15.87
2022-10-16T06:26:21.446Z,15.89
2022-10-16T06:28:50.110Z,15.94
2022-10-16T06:31:18.629Z,16.00
2022-10-16T06:33:49.237Z,15.99
2022-10-16T06:36:18.770Z,15.96
2022-10-16T06:38:46.657Z,15.94
2022-10-16T06:41:17.391Z,15.92
2022-10-16T06:43:46.468Z,15.93
2022-10-16T06:46:16.866Z,15.97
2022-10-16T06:48:44.775Z,16.01
2022-10-16T06:51:15.687Z,16.05
2022-10-16T06:54:02.872Z,16.09
2022-10-16T06:56:33.917Z,16.20
2022-10-16T06:59:03.065Z,16.32
2022-10-16T07:01:31.556Z,16.47
2022-10-16T07:04:00.907Z,16.60
2022-10-16T07:06:33.440Z,16.71
2022-10-16T07:09:04.692Z,16.79
2022-10-16T07:11:33.366Z,16.86
2022-10-16T07:14:01.358Z,16.96
2022-10-16T07:16:31.553Z,17.03
2022-10-16T07:19:02.219Z,17.03
2022-10-16T07:21:36.309Z,17.03
2022-10-16T07:24:07.140Z,17.06
2022-10-16T07:26:37.712Z,17.07
2022-10-16T07:29:07.847Z,17.09
2022-10-16T07:31:35.805Z,17.18
2022-10-16T07:34:03.709Z,17.31
2022-10-16T07:36:31.713Z,17.44
2022-10-16T07:39:00.368Z,17.45
2022-10-16T07:41:29.189Z,17.53
2022-10-16T07:44:01.142Z,17.65
2022-10-16T07:46:29.894Z,17.73
2022-10-16T07:48:58.126Z,17.86
2022-10-16T07:51:27.149Z,18.04
2022-10-16T07:53:55.952Z,18.15
2022-10-16T07:56:24.573Z,18.19
2022-10-16T07:58:53.291Z,18.20
2022-10-16T08:01:21.638Z,18.26
2022-10-16T08:03:51.429Z,18.25
2022-10-16T08:06:25.132Z,18.22
2022-10-16T08:09:00.980Z,18.19
2022-10-16T08:11:28.880Z,18.19
2022-10-16T08:13:56.658Z,18.25
2022-10-16T08:16:24.554Z,18.24
2022-10-16T08:18:52.887Z,18.25
2022-10-16T08:21:24.163Z,18.23
2022-10-16T08:23:57.101Z,18.25
2022-10-16T08:26:27.847Z,18.41
2022-10-16T08:28:57.207Z,18.56
2022-10-16T08:31:25.687Z,18.59
2022-10-16T08:33:53.926Z,18.65
2022-10-16T08:36:22.048Z,18.76
2022-10-16T08:38:51.524Z,18.85
2022-10-16T08:41:25.336Z,18.99
2022-10-16T08:44:21.545Z,19.13
2022-10-16T08:46:52.341Z,19.47
2022-10-16T08:49:20.621Z,19.69
2022-10-16T08:51:50.649Z,19.77
2022-10-16T08:54:34.679Z,19.87
2022-10-16T08:57:10.330Z,20.08
2022-10-16T08:59:38.137Z,20.25
2022-10-16T09:02:36.273Z,20.41
2022-10-16T09:05:27.182Z,20.49
2022-10-16T09:10:37.883Z,20.19
2022-10-16T09:13:28.668Z,20.32
2022-10-16T09:16:23.353Z,21.09
2022-10-16T09:19:19.284Z,22.17
2022-10-16T09:21:49.082Z,24.52
2022-10-16T09:24:19.959Z,26.87
2022-10-16T09:26:48.607Z,28.71
2022-10-16T09:29:21.919Z,30.12
2022-10-16T09:31:49.805Z,31.46
2022-10-16T09:34:32.245Z,32.75
2022-10-16T09:37:04.526Z,33.08
2022-10-16T09:39:46.299Z,32.96
2022-10-16T09:42:23.417Z,31.58
2022-10-16T09:44:54.514Z,30.86
2022-10-16T09:47:26.536Z,31.80
2022-10-16T09:50:02.804Z,32.24
2022-10-16T09:52:32.117Z,32.58
2022-10-16T09:55:14.392Z,31.10
2022-10-16T09:57:55.689Z,30.00
2022-10-16T10:00:25.778Z,28.64
2022-10-16T10:05:30.376Z,27.89
2022-10-16T10:08:07.109Z,26.40
2022-10-16T10:10:42.445Z,25.13
2022-10-16T10:13:36.758Z,24.42
2022-10-16T10:16:04.937Z,25.39
2022-10-16T10:18:33.082Z,26.62
2022-10-16T10:23:31.852Z,27.91
2022-10-16T10:26:25.683Z,28.18
2022-10-16T10:28:59.367Z,29.53
2022-10-16T10:31:39.523Z,30.17
2022-10-16T10:34:32.671Z,30.24
2022-10-16T10:37:28.742Z,30.53
2022-10-16T10:40:17.076Z,30.73
2022-10-16T10:42:54.902Z,28.98
2022-10-16T10:45:37.613Z,27.17
2022-10-16T10:48:24.954Z,25.81
2022-10-16T10:51:02.349Z,24.64
2022-10-16T10:53:42.978Z,24.47
2022-10-16T10:56:17.155Z,24.75
2022-10-16T10:58:54.256Z,24.74
2022-10-16T11:01:34.330Z,25.26
2022-10-16T11:04:20.413Z,27.27
2022-10-16T11:06:51.728Z,29.38
2022-10-16T11:09:37.961Z,30.95
2022-10-16T11:12:25.179Z,32.06
2022-10-16T11:15:05.429Z,32.82
2022-10-16T11:17:36.383Z,33.45
2022-10-16T11:20:14.689Z,33.88
2022-10-16T11:22:45.097Z,32.94
2022-10-16T11:25:24.679Z,31.36
2022-10-16T11:27:58.385Z,29.49
2022-10-16T11:30:28.009Z,27.91
2022-10-16T11:32:58.926Z,26.60
2022-10-16T11:35:35.264Z,25.51
2022-10-16T11:38:04.840Z,24.71
2022-10-16T11:40:34.659Z,24.09
2022-10-16T11:43:07.626Z,23.59
2022-10-16T11:45:45.003Z,23.01
2022-10-16T11:48:15.539Z,22.45
2022-10-16T11:50:43.192Z,21.97
2022-10-16T11:53:29.617Z,21.66
2022-10-16T11:55:57.274Z,21.45
2022-10-16T11:58:32.016Z,21.29
2022-10-16T12:01:02.782Z,21.07
2022-10-16T12:03:50.685Z,21.00
2022-10-16T12:06:35.127Z,20.94
2022-10-16T12:09:03.970Z,20.90
2022-10-16T12:11:33.592Z,20.90
2022-10-16T12:14:21.618Z,20.84
2022-10-16T12:17:03.017Z,20.70
2022-10-16T12:19:31.445Z,20.62
2022-10-16T12:22:04.539Z,20.58
2022-10-16T12:24:39.078Z,20.54
2022-10-16T12:27:08.262Z,20.54
2022-10-16T12:29:37.728Z,20.53
2022-10-16T12:32:09.263Z,20.52
2022-10-16T12:34:40.397Z,20.56
2022-10-16T12:37:12.882Z,20.59
2022-10-16T12:39:40.934Z,20.60
2022-10-16T12:42:27.824Z,20.61
2022-10-16T12:44:56.025Z,20.67
2022-10-16T12:47:32.870Z,20.73
2022-10-16T12:50:04.167Z,20.78
2022-10-16T12:52:37.132Z,20.84
2022-10-16T12:55:06.166Z,20.89
2022-10-16T12:57:40.086Z,20.95
2022-10-16T13:00:33.196Z,20.98
2022-10-16T13:03:33.530Z,20.99
2022-10-16T13:06:27.579Z,21.07
2022-10-16T13:09:04.292Z,21.21
2022-10-16T13:11:38.281Z,21.29
2022-10-16T13:14:06.148Z,21.29
2022-10-16T13:16:41.750Z,21.34
2022-10-16T13:19:12.520Z,21.50
2022-10-16T13:21:43.164Z,21.75
2022-10-16T13:24:16.763Z,22.21
2022-10-16T13:26:54.177Z,23.15
2022-10-16T13:29:22.461Z,23.81
2022-10-16T13:31:50.502Z,24.03
2022-10-16T13:34:20.382Z,23.92
2022-10-16T13:36:51.404Z,23.74
2022-10-16T13:39:21.941Z,23.48
2022-10-16T13:42:20.100Z,23.31
2022-10-16T13:44:53.971Z,23.62
2022-10-16T13:47:21.657Z,23.96
2022-10-16T13:50:00.172Z,23.59
2022-10-16T13:52:28.144Z,22.97
2022-10-16T13:55:00.866Z,22.69
2022-10-16T13:57:30.166Z,22.58
2022-10-16T13:59:57.788Z,22.82
2022-10-16T14:02:31.754Z,23.09
2022-10-16T14:04:59.726Z,23.32
2022-10-16T14:07:29.141Z,23.48
2022-10-16T14:09:57.727Z,23.45
2022-10-16T14:12:28.182Z,23.13
2022-10-16T14:14:58.589Z,22.78
2022-10-16T14:17:28.393Z,22.51
2022-10-16T14:20:00.796Z,22.36
2022-10-16T14:22:43.582Z,22.24
2022-10-16T14:25:20.338Z,22.13
2022-10-16T14:28:03.331Z,21.99
2022-10-16T14:30:32.212Z,21.84
2022-10-16T14:33:19.835Z,21.66
2022-10-16T14:35:47.763Z,21.51
2022-10-16T14:38:19.393Z,21.41
2022-10-16T14:40:48.740Z,21.33
2022-10-16T14:43:21.971Z,21.28
2022-10-16T14:45:56.942Z,21.20
2022-10-16T14:48:25.532Z,21.10
2022-10-16T14:50:53.807Z,21.01
2022-10-16T14:53:21.533Z,20.92
2022-10-16T14:55:49.620Z,20.79
2022-10-16T14:58:19.025Z,20.65
2022-10-16T15:00:46.998Z,20.50
2022-10-16T15:03:14.886Z,20.37
2022-10-16T15:05:42.573Z,20.26
2022-10-16T15:08:10.382Z,20.16
2022-10-16T15:10:42.484Z,20.07
2022-10-16T15:13:14.720Z,20.01
2022-10-16T15:15:46.944Z,19.97
2022-10-16T15:18:21.287Z,19.94
2022-10-16T15:20:50.328Z,19.88
2022-10-16T15:23:19.928Z,19.80
2022-10-16T15:25:52.498Z,19.74
2022-10-16T15:28:21.106Z,19.65
2022-10-16T15:30:53.608Z,19.56
2022-10-16T15:33:23.984Z,19.47
2022-10-16T15:35:52.748Z,19.39
2022-10-16T15:38:21.203Z,19.36
2022-10-16T15:40:49.440Z,19.32
2022-10-16T15:43:17.726Z,19.27
2022-10-16T15:45:45.872Z,19.20
2022-10-16T15:48:17.030Z,19.13
2022-10-16T15:53:17.584Z,18.96
2022-10-16T15:55:45.314Z,18.89
2022-10-16T15:58:13.133Z,18.81
2022-10-16T16:00:41.075Z,18.73
2022-10-16T16:03:08.943Z,18.66
2022-10-16T16:05:40.822Z,18.60
2022-10-16T16:08:11.944Z,18.55
2022-10-16T16:10:39.708Z,18.52
2022-10-16T16:13:07.396Z,18.47
2022-10-16T16:15:35.485Z,18.41
2022-10-16T16:20:39.471Z,18.23
2022-10-16T16:23:07.170Z,18.13
2022-10-16T16:25:35.001Z,18.01
2022-10-16T16:28:02.854Z,17.89
2022-10-16T16:30:30.730Z,17.80
2022-10-16T16:32:58.468Z,17.72
2022-10-16T16:35:26.169Z,17.67
2022-10-16T16:37:53.845Z,17.63
2022-10-16T16:40:21.669Z,17.59
2022-10-16T16:42:50.091Z,17.55
2022-10-16T16:45:17.937Z,17.53
2022-10-16T16:47:45.790Z,17.52
2022-10-16T16:50:13.564Z,17.55
2022-10-16T16:52:41.328Z,17.58
2022-10-16T16:55:09.502Z,17.61
2022-10-16T16:57:37.189Z,17.61
2022-10-16T17:00:05.448Z,17.61
2022-10-16T17:02:33.937Z,17.60
2022-10-16T17:05:01.833Z,17.57
2022-10-16T17:07:33.521Z,17.55
2022-10-16T17:10:01.647Z,17.52
2022-10-16T17:12:31.470Z,17.52
2022-10-16T17:14:59.253Z,17.53
2022-10-16T17:17:27.242Z,17.54
2022-10-16T17:19:55.119Z,17.54
2022-10-16T17:22:22.901Z,17.50
2022-10-16T17:24:52.202Z,17.42
2022-10-16T17:27:21.308Z,17.36
2022-10-16T17:29:52.527Z,17.30
2022-10-16T17:32:21.325Z,17.25
2022-10-16T17:34:49.077Z,17.21
2022-10-16T17:37:18.134Z,17.18
2022-10-16T17:39:46.262Z,17.18
2022-10-16T17:42:14.441Z,17.13
2022-10-16T17:44:42.286Z,17.13
2022-10-16T17:47:10.804Z,17.10
2022-10-16T17:49:39.582Z,17.07
2022-10-16T17:52:08.258Z,17.05
2022-10-16T17:54:36.775Z,17.01
2022-10-16T17:57:06.548Z,17.00
2022-10-16T17:59:35.133Z,17.03
2022-10-16T18:02:03.758Z,17.09
2022-10-16T18:04:31.957Z,17.12
2022-10-16T18:07:00.661Z,17.11
2022-10-16T18:09:29.403Z,17.11
2022-10-16T18:12:00.851Z,17.10
2022-10-16T18:14:30.113Z,17.06
2022-10-16T18:16:58.698Z,16.96
2022-10-16T18:19:27.085Z,16.85
2022-10-16T18:21:59.143Z,16.76
2022-10-16T18:24:27.521Z,16.68
2022-10-16T18:26:59.148Z,16.65
2022-10-16T18:29:27.400Z,16.64
2022-10-16T18:31:55.542Z,16.61
2022-10-16T18:34:24.312Z,16.58
2022-10-16T18:36:54.317Z,16.58
2022-10-16T18:39:24.382Z,16.59
2022-10-16T18:41:55.386Z,16.59
2022-10-16T18:44:24.384Z,16.55
2022-10-16T18:46:57.497Z,16.50
2022-10-16T18:49:26.566Z,16.51
2022-10-16T18:51:57.297Z,16.51
2022-10-16T18:54:25.846Z,16.55
2022-10-16T18:56:54.160Z,16.62
2022-10-16T18:59:22.541Z,16.68
2022-10-16T19:01:50.551Z,16.74
2022-10-16T19:04:19.205Z,16.83
2022-10-16T19:06:48.830Z,16.91
2022-10-16T19:09:18.281Z,16.95
2022-10-16T19:11:46.681Z,16.95
2022-10-16T19:14:16.548Z,16.94
2022-10-16T19:16:44.671Z,16.93
2022-10-16T19:19:14.405Z,16.91
2022-10-16T19:21:42.417Z,16.89
2022-10-16T19:24:12.480Z,16.87
2022-10-16T19:26:42.071Z,16.87
2022-10-16T19:29:11.401Z,16.86
2022-10-16T19:31:39.672Z,16.87
2022-10-16T19:34:08.480Z,16.87
2022-10-16T19:36:37.001Z,16.88
2022-10-16T19:39:06.372Z,16.87
2022-10-16T19:41:34.295Z,16.84
2022-10-16T19:44:02.630Z,16.81
2022-10-16T19:46:30.948Z,16.79
2022-10-16T19:49:00.822Z,16.76
2022-10-16T19:51:29.389Z,16.67
2022-10-16T19:53:58.283Z,16.56
2022-10-16T19:56:27.747Z,16.48
2022-10-16T19:58:56.537Z,16.40
2022-10-16T20:01:25.125Z,16.32
2022-10-16T20:03:53.049Z,16.23
2022-10-16T20:06:21.566Z,16.17
2022-10-16T20:08:51.991Z,16.13
2022-10-16T20:11:22.109Z,16.11
2022-10-16T20:13:50.716Z,16.08
2022-10-16T20:16:20.516Z,16.04
2022-10-16T20:18:49.617Z,16.01
2022-10-16T20:21:19.923Z,16.03
2022-10-16T20:23:49.585Z,16.03
2022-10-16T20:26:18.810Z,16.00
2022-10-16T20:28:47.454Z,15.95
2022-10-16T20:31:18.703Z,15.89
2022-10-16T20:33:46.434Z,15.86
2022-10-16T20:36:15.359Z,15.87
2022-10-16T20:38:43.696Z,15.95
2022-10-16T20:41:12.530Z,16.02
2022-10-16T20:46:16.015Z,16.00
2022-10-16T20:48:44.995Z,15.97
2022-10-16T20:51:18.698Z,15.96
2022-10-16T20:53:47.859Z,15.93
2022-10-16T20:56:17.324Z,15.90
2022-10-16T20:58:45.460Z,15.91
2022-10-16T21:01:15.567Z,15.91
2022-10-16T21:03:43.944Z,15.93
2022-10-16T21:06:12.188Z,15.92
2022-10-16T21:08:40.957Z,15.85
2022-10-16T21:11:12.460Z,15.75
2022-10-16T21:13:40.291Z,15.66
2022-10-16T21:16:08.326Z,15.57
2022-10-16T21:18:36.706Z,15.51
2022-10-16T21:21:06.089Z,15.44
2022-10-16T21:23:33.866Z,15.37
2022-10-16T21:26:01.590Z,15.34
2022-10-16T21:28:32.839Z,15.41
2022-10-16T21:31:10.231Z,15.42
2022-10-16T21:33:38.131Z,15.40
2022-10-16T21:36:16.298Z,15.38
2022-10-16T21:38:44.414Z,15.34
2022-10-16T21:41:19.399Z,15.35
2022-10-16T21:43:47.152Z,15.38
2022-10-16T21:46:15.770Z,15.42
2022-10-16T21:48:43.494Z,15.45
2022-10-16T21:51:11.954Z,15.50
2022-10-16T21:53:40.196Z,15.53
2022-10-16T21:56:18.218Z,15.58
2022-10-16T21:58:45.978Z,15.62
2022-10-16T22:01:14.892Z,15.64
2022-10-16T22:03:43.469Z,15.61
2022-10-16T22:06:12.448Z,15.57
2022-10-16T22:08:40.726Z,15.51
2022-10-16T22:11:09.726Z,15.47
2022-10-16T22:13:38.079Z,15.44
2022-10-16T22:16:06.284Z,15.41
2022-10-16T22:18:34.346Z,15.38
2022-10-16T22:21:02.595Z,15.37
2022-10-16T22:23:30.283Z,15.34
2022-10-16T22:26:16.356Z,15.30
2022-10-16T22:28:44.285Z,15.25
2022-10-16T22:31:13.185Z,15.21
2022-10-16T22:33:40.941Z,15.19
2022-10-16T22:36:11.349Z,15.20
2022-10-16T22:38:39.069Z,15.22
2022-10-16T22:41:07.964Z,15.25
2022-10-16T22:43:39.850Z,15.27
2022-10-16T22:46:08.551Z,15.35
2022-10-16T22:48:36.629Z,15.46
2022-10-16T22:51:05.187Z,15.54
2022-10-16T22:53:33.663Z,15.58
2022-10-16T22:56:01.633Z,15.57
2022-10-16T22:58:29.560Z,15.51
2022-10-16T23:03:30.106Z,15.45
2022-10-16T23:05:57.797Z,15.43
2022-10-16T23:08:25.476Z,15.39
2022-10-16T23:10:53.437Z,15.34
2022-10-16T23:13:21.172Z,15.30
2022-10-16T23:15:48.891Z,15.26
2022-10-16T23:18:16.526Z,15.18
2022-10-16T23:20:44.244Z,15.10
2022-10-16T23:23:12.054Z,15.05
2022-10-16T23:25:44.714Z,15.10
2022-10-16T23:28:12.811Z,15.18
2022-10-16T23:30:40.824Z,15.20
2022-10-16T23:33:08.799Z,15.19
2022-10-16T23:35:39.228Z,15.17
2022-10-16T23:38:07.054Z,15.20
2022-10-16T23:40:34.744Z,15.24
2022-10-16T23:43:02.624Z,15.30
2022-10-16T23:45:30.530Z,15.34
2022-10-16T23:47:58.257Z,15.37
2022-10-16T23:50:25.977Z,15.40
2022-10-16T23:52:53.701Z,15.40
2022-10-16T23:55:21.405Z,15.40
2022-10-16T23:57:49.558Z,15.42
